Tri-City, KS

4:06 PM CST on December 22, 2014 (GMT -0600)
Chanute Martin Johnson | Change Station
CLOSE
Current Station
Airport
Location: Chanute,
Elevation: 1001 ft
Nearby Weather Stations

Elev 1001 ft 37.67 °N, 95.48 °W | Updated 14 minutes ago

Overcast
Overcast
49 °F
Feels Like 49 °F
N
13
Wind Variable Wind from WNW
Gusts 24 mph

Today
High -- | Low -- °F
--% Chance of Precip.
Yesterday
High -- | Low -- °F
Precip. -- in
7:33 AM 5:08 PM
New Moon, 1% visible
Pressure 29.51 in
Visibility 10.0 miles
Clouds Mostly Cloudy 2300 ft
Mostly Cloudy 3000 ft
Overcast 3700 ft
Dew Point 44 °F
Humidity 83%
Rainfall 0.04 in
Snow Depth Not available.
UV 0 out of 12
Pollen 6.30 out of 12
Air Quality Not available.
Flu Activity Not available.
METAR KCNU 222152Z AUTO 29011G21KT 10SM BKN023 BKN030 OVC037 09/07 A2951 RMK AO2 SLP992 T00940067

More Conditions Fewer Conditions

Pressure 29.51 in
Visibility 10.0 miles
Clouds Mostly Cloudy 2300 ft
Mostly Cloudy 3000 ft
Overcast 3700 ft
Dew Point 44 °F
Humidity 83%
Rainfall 0.04 in
Snow Depth Not available.
UV 0 out of 12
Pollen 6.30 out of 12
Air Quality Not available.
Flu Activity Not available.
METAR KCNU 222152Z AUTO 29011G21KT 10SM BKN023 BKN030 OVC037 09/07 A2951 RMK AO2 SLP992 T00940067

More Conditions Fewer Conditions

10-Day Weather Forecast

Almanac

Astronomy

Dec. 22, 2014 Rise Set
Actual Time
Civil Twilight
Nautical Twilight
Astronomical Twilight
Moon
Length of Visible Light
Length of Day
Tomorrow will be .
, % of the Moon is Illuminated

Today's Extremes

State Highs State Lows

Community

WunderPhotos

Upload Photos

1,779,691 photos uploaded!

WunderBlogs® & News

Nearby

Air Quality

  Air Quality AQ Index Pollutant
Not available.

Snow Depth

Station Depth Elevation

Earthquake Activity

City Distance Mag. Time & Date
Minimum magnitude displayed is 2.5.

Coastal Water Temperatures

Place Temperature

Nearby Weather Stations